Time;durP1;ratioP1;P1;durP2;ratioP2;P2;SDS_P1;SDS_P2;PMS_P1;PMS_P2;Temp;Humidity;BMP_temperature;BMP_pressure;BME280_temperature;BME280_humidity;BME280_pressure;Samples;Min_cycle;Max_cycle;Signal;HPM_P1;HPM_P2
2022/08/20 00:01:04;;;;;;;;;;;;;;;;;;5054125;28;1431;-71
2022/08/20 00:03:32;;;;;;;;;;;;;;;;;;5054032;28;770;-71
2022/08/20 00:06:00;;;;;;;;;;;;;;;;;;5054434;28;1138;-72
2022/08/20 00:08:27;;;;;;;;;;;;;;;;;;5054541;28;818;-71
2022/08/20 00:10:53;;;;;;;;;;;;;;;;;;5054100;28;1284;-71
2022/08/20 00:13:21;;;;;;;;;;;;;;;;;;5054121;28;1919;-71
2022/08/20 00:15:47;;;;;;;;;;;;;;;;;;5054290;28;1123;-71
2022/08/20 00:18:14;;;;;;;;;;;;;;;;;;5054403;28;1001;-71
2022/08/20 00:20:41;;;;;;;;;;;;;;;;;;5053803;28;1317;-72
2022/08/20 00:23:09;;;;;;;;;;;;;;;;;;5053970;28;1072;-72
2022/08/20 00:25:35;;;;;;;;;;;;;;;;;;5054007;28;1008;-71
2022/08/20 00:28:02;;;;;;;;;;;;;;;;;;5054084;28;862;-71
2022/08/20 00:30:29;;;;;;;;;;;;;;;;;;5053690;28;1391;-71
2022/08/20 00:32:57;;;;;;;;;;;;;;;;;;5053468;28;1914;-71
2022/08/20 00:35:24;;;;;;;;;;;;;;;;;;5053900;28;1052;-72
2022/08/20 00:37:50;;;;;;;;;;;;;;;;;;5053492;28;1060;-71
2022/08/20 00:40:19;;;;;;;;;;;;;;;;;;5053800;28;1368;-71
2022/08/20 00:42:47;;;;;;;;;;;;;;;;;;5055685;28;1514;-71
2022/08/20 00:45:13;;;;;;;;;;;;;;;;;;5053820;28;1056;-72
2022/08/20 00:47:41;;;;;;;;;;;;;;;;;;5053602;28;1115;-71
2022/08/20 00:50:08;;;;;;;;;;;;;;;;;;5053732;28;1107;-71
2022/08/20 00:52:34;;;;;;;;;;;;;;;;;;5053096;28;1407;-71
2022/08/20 00:55:01;;;;;;;;;;;;;;;;;;5035627;28;1934;-71
2022/08/20 00:57:30;;;;;;;;;;;;;;;;;;5052323;28;815;-71
2022/08/20 00:59:57;;;;;;;;;;;;;;;;;;5053555;28;1001;-71
2022/08/20 01:02:26;;;;;;;;;;;;;;;;;;5053176;28;1263;-71
2022/08/20 01:04:52;;;;;;;;;;;;;;;;;;5053372;28;1079;-72
2022/08/20 01:07:19;;;;;;;;;;;;;;;;;;5053452;28;1254;-72
2022/08/20 01:09:46;;;;;;;;;;;;;;;;;;5052077;28;1104;-72
2022/08/20 01:12:13;;;;;;;;;;;;;;;;;;5052857;28;1332;-71
2022/08/20 01:14:44;;;;;;;;;;;;;;;;;;5051657;28;1971;-72
2022/08/20 01:17:16;;;;;;;;;;;;;;;;;;5053256;28;1111;-73
2022/08/20 01:19:43;;;;;;;;;;;;;;;;;;5052935;28;1025;-72
2022/08/20 01:24:49;;;;;;;;;;;;;;;;;;5033817;28;1410;-73
2022/08/20 01:27:17;;;;;;;;;;;;;;;;;;5051655;28;1334;-73
2022/08/20 01:29:43;;;;;;;;;;;;;;;;;;5052642;28;1000;-73
2022/08/20 01:32:09;;;;;;;;;;;;;;;;;;5052475;28;1416;-74
2022/08/20 01:34:35;;;;;;;;;;;;;;;;;;5052658;28;1990;-73
2022/08/20 01:37:02;;;;;;;;;;;;;;;;;;5052600;28;1125;-73
2022/08/20 01:39:29;;;;;;;;;;;;;;;;;;5052427;28;1075;-74
2022/08/20 01:41:58;;;;;;;;;;;;;;;;;;5052145;28;1325;-73
2022/08/20 01:44:26;;;;;;;;;;;;;;;;;;5034958;28;1108;-74
2022/08/20 01:46:54;;;;;;;;;;;;;;;;;;5052642;28;934;-73
2022/08/20 01:49:21;;;;;;;;;;;;;;;;;;5052450;28;1071;-73
2022/08/20 01:51:48;;;;;;;;;;;;;;;;;;5052099;28;1302;-73
2022/08/20 01:54:14;;;;;;;;;;;;;;;;;;5052647;28;1914;-73
2022/08/20 01:56:50;;;;;;;;;;;;;;;;;;5052147;28;1083;-73
2022/08/20 01:59:16;;;;;;;;;;;;;;;;;;5051360;28;1154;-73
2022/08/20 02:01:44;;;;;;;;;;;;;;;;;;5051951;28;1299;-73
2022/08/20 02:04:10;;;;;;;;;;;;;;;;;;5052337;28;1071;-73
2022/08/20 02:06:39;;;;;;;;;;;;;;;;;;5051838;28;1116;-73
2022/08/20 02:09:06;;;;;;;;;;;;;;;;;;5052072;28;1079;-73
2022/08/20 02:11:33;;;;;;;;;;;;;;;;;;5051909;28;1285;-73
2022/08/20 02:13:59;;;;;;;;;;;;;;;;;;5052011;28;1910;-73
2022/08/20 02:16:27;;;;;;;;;;;;;;;;;;5052189;28;1131;-73
2022/08/20 02:18:56;;;;;;;;;;;;;;;;;;5052054;28;895;-73
2022/08/20 02:21:23;;;;;;;;;;;;;;;;;;5051702;28;1261;-73
2022/08/20 02:23:49;;;;;;;;;;;;;;;;;;5033983;28;1123;-72
2022/08/20 02:26:17;;;;;;;;;;;;;;;;;;5051430;28;1072;-73
2022/08/20 02:28:47;;;;;;;;;;;;;;;;;;5069176;22;4209;-77
2022/08/20 02:31:14;;;;;;;;;;;;;;;;;;5071321;28;1094;-77
2022/08/20 02:33:40;;;;;;;;;;;;;;;;;;5071634;28;1963;-76
2022/08/20 02:36:09;;;;;;;;;;;;;;;;;;5071832;28;1051;-76
2022/08/20 02:38:37;;;;;;;;;;;;;;;;;;5076899;28;1409;-77
2022/08/20 02:41:04;;;;;;;;;;;;;;;;;;5091340;28;1471;-78
2022/08/20 02:43:30;;;;;;;;;;;;;;;;;;5091139;28;1134;-77
2022/08/20 02:45:57;;;;;;;;;;;;;;;;;;5073736;28;1115;-77
2022/08/20 02:48:23;;;;;;;;;;;;;;;;;;5073670;28;1336;-77
2022/08/20 02:50:50;;;;;;;;;;;;;;;;;;5091934;28;1114;-77
2022/08/20 02:53:18;;;;;;;;;;;;;;;;;;5091417;28;1055;-77
2022/08/20 02:55:44;;;;;;;;;;;;;;;;;;5073478;28;1926;-78
2022/08/20 02:58:10;;;;;;;;;;;;;;;;;;5091985;28;1327;-77
2022/08/20 03:00:36;;;;;;;;;;;;;;;;;;5091332;28;747;-77
2022/08/20 03:03:03;;;;;;;;;;;;;;;;;;5091619;28;1067;-76
2022/08/20 03:05:29;;;;;;;;;;;;;;;;;;5091497;28;1138;-77
2022/08/20 03:07:56;;;;;;;;;;;;;;;;;;5073365;28;1089;-77
2022/08/20 03:10:24;;;;;;;;;;;;;;;;;;5091319;28;1353;-77
2022/08/20 03:12:51;;;;;;;;;;;;;;;;;;5073362;28;1566;-76
2022/08/20 03:15:17;;;;;;;;;;;;;;;;;;5091284;28;1914;-77
2022/08/20 03:17:43;;;;;;;;;;;;;;;;;;5091599;28;1118;-77
2022/08/20 03:20:10;;;;;;;;;;;;;;;;;;5090399;28;1316;-76
2022/08/20 03:22:36;;;;;;;;;;;;;;;;;;5091005;28;881;-76
2022/08/20 03:25:03;;;;;;;;;;;;;;;;;;5091402;28;983;-76
2022/08/20 03:27:30;;;;;;;;;;;;;;;;;;5073214;28;1459;-78
2022/08/20 03:29:56;;;;;;;;;;;;;;;;;;5072994;28;1506;-76
2022/08/20 03:32:23;;;;;;;;;;;;;;;;;;5090997;28;1043;-76
2022/08/20 03:34:49;;;;;;;;;;;;;;;;;;5091339;28;1971;-76
2022/08/20 03:37:15;;;;;;;;;;;;;;;;;;5091165;28;888;-77
2022/08/20 03:39:41;;;;;;;;;;;;;;;;;;5091081;28;1328;-77
2022/08/20 03:42:07;;;;;;;;;;;;;;;;;;5072815;28;1161;-76
2022/08/20 03:44:36;;;;;;;;;;;;;;;;;;5091251;28;936;-76
2022/08/20 03:47:02;;;;;;;;;;;;;;;;;;5088387;28;2556;-76
2022/08/20 03:49:28;;;;;;;;;;;;;;;;;;5083773;28;1440;-76
2022/08/20 03:51:55;;;;;;;;;;;;;;;;;;5090892;28;1063;-76
2022/08/20 03:54:21;;;;;;;;;;;;;;;;;;5091002;28;1910;-76
2022/08/20 03:56:47;;;;;;;;;;;;;;;;;;5090859;28;1075;-76
2022/08/20 03:59:13;;;;;;;;;;;;;;;;;;5091319;28;1364;-76
2022/08/20 04:01:41;;;;;;;;;;;;;;;;;;5090723;28;1083;-76
2022/08/20 04:04:07;;;;;;;;;;;;;;;;;;5091163;28;731;-76
2022/08/20 04:06:33;;;;;;;;;;;;;;;;;;5072748;28;1499;-76
2022/08/20 04:08:59;;;;;;;;;;;;;;;;;;5090954;28;1313;-76
2022/08/20 04:11:26;;;;;;;;;;;;;;;;;;5090511;28;1067;-76
2022/08/20 04:13:52;;;;;;;;;;;;;;;;;;5090967;28;1055;-76
2022/08/20 04:16:18;;;;;;;;;;;;;;;;;;5090521;28;1973;-77
2022/08/20 04:18:46;;;;;;;;;;;;;;;;;;5090954;28;1320;-77
2022/08/20 04:21:13;;;;;;;;;;;;;;;;;;5086557;28;1386;-76
2022/08/20 04:23:39;;;;;;;;;;;;;;;;;;5059498;28;1224;-76
2022/08/20 04:26:05;;;;;;;;;;;;;;;;;;5087544;28;1406;-75
2022/08/20 04:28:32;;;;;;;;;;;;;;;;;;5090546;28;1399;-76
2022/08/20 04:30:59;;;;;;;;;;;;;;;;;;5073398;28;1186;-77
2022/08/20 04:33:26;;;;;;;;;;;;;;;;;;5065112;28;1426;-77
2022/08/20 04:35:54;;;;;;;;;;;;;;;;;;5071565;28;1922;-80
2022/08/20 04:38:21;;;;;;;;;;;;;;;;;;5067611;28;1392;-77
2022/08/20 04:40:53;;;;;;;;;;;;;;;;;;5094222;28;810;-78
2022/08/20 04:43:19;;;;;;;;;;;;;;;;;;5093730;28;1111;-80
2022/08/20 04:45:46;;;;;;;;;;;;;;;;;;5092646;28;1450;-77
2022/08/20 04:48:12;;;;;;;;;;;;;;;;;;5085595;28;1500;-77
2022/08/20 04:50:39;;;;;;;;;;;;;;;;;;5093365;28;1427;-78
2022/08/20 04:53:07;;;;;;;;;;;;;;;;;;5075455;28;1284;-77
2022/08/20 04:55:37;;;;;;;;;;;;;;;;;;5071834;28;1975;-78
2022/08/20 04:58:04;;;;;;;;;;;;;;;;;;5085451;28;1408;-78
2022/08/20 05:00:31;;;;;;;;;;;;;;;;;;5093878;28;937;-76
2022/08/20 05:02:57;;;;;;;;;;;;;;;;;;5093470;28;1105;-75
2022/08/20 05:05:23;;;;;;;;;;;;;;;;;;5093495;28;949;-77
2022/08/20 05:07:50;;;;;;;;;;;;;;;;;;5093733;28;762;-77
2022/08/20 05:10:18;;;;;;;;;;;;;;;;;;5093552;28;1309;-77
2022/08/20 05:12:44;;;;;;;;;;;;;;;;;;5075291;28;850;-77
2022/08/20 05:15:11;;;;;;;;;;;;;;;;;;5075416;28;1921;-76
2022/08/20 05:17:37;;;;;;;;;;;;;;;;;;5093555;28;1059;-76
2022/08/20 05:20:04;;;;;;;;;;;;;;;;;;5093339;28;1305;-76
2022/08/20 05:22:30;;;;;;;;;;;;;;;;;;5093032;28;850;-76
2022/08/20 05:24:58;;;;;;;;;;;;;;;;;;5075074;28;1234;-76
2022/08/20 05:27:25;;;;;;;;;;;;;;;;;;5093371;28;1102;-78
2022/08/20 05:29:52;;;;;;;;;;;;;;;;;;5092794;28;1407;-75
2022/08/20 05:32:19;;;;;;;;;;;;;;;;;;5092129;28;860;-75
2022/08/20 05:34:45;;;;;;;;;;;;;;;;;;5087386;28;1918;-77
2022/08/20 05:37:11;;;;;;;;;;;;;;;;;;5081368;28;1330;-77
2022/08/20 05:39:37;;;;;;;;;;;;;;;;;;5083822;28;1537;-76
2022/08/20 05:42:04;;;;;;;;;;;;;;;;;;5085022;28;1385;-76
2022/08/20 05:44:31;;;;;;;;;;;;;;;;;;5077361;28;1181;-77
2022/08/20 05:46:57;;;;;;;;;;;;;;;;;;5071206;28;1063;-79
2022/08/20 05:49:24;;;;;;;;;;;;;;;;;;5053209;28;1409;-78
2022/08/20 05:51:50;;;;;;;;;;;;;;;;;;5077184;28;1458;-75
2022/08/20 05:54:17;;;;;;;;;;;;;;;;;;5082354;28;1095;-76
2022/08/20 05:56:43;;;;;;;;;;;;;;;;;;5090691;28;1914;-75
2022/08/20 05:59:11;;;;;;;;;;;;;;;;;;5090851;28;1359;-76
2022/08/20 06:01:38;;;;;;;;;;;;;;;;;;5083019;28;1398;-76
2022/08/20 06:06:49;;;;;;;;;;;;;;;;;;5090971;28;948;-77
2022/08/20 06:09:16;;;;;;;;;;;;;;;;;;5090718;28;1387;-76
2022/08/20 06:11:42;;;;;;;;;;;;;;;;;;5071199;28;1466;-77
2022/08/20 06:14:08;;;;;;;;;;;;;;;;;;5073812;28;1169;-75
2022/08/20 06:16:34;;;;;;;;;;;;;;;;;;5075852;28;1906;-76
2022/08/20 06:19:02;;;;;;;;;;;;;;;;;;5073497;28;1356;-76
2022/08/20 06:21:28;;;;;;;;;;;;;;;;;;5079198;28;1322;-76
2022/08/20 06:23:54;;;;;;;;;;;;;;;;;;5075221;28;1302;-77
2022/08/20 06:26:20;;;;;;;;;;;;;;;;;;5079905;28;1806;-77
2022/08/20 06:28:46;;;;;;;;;;;;;;;;;;5056217;28;1471;-77
2022/08/20 06:31:13;;;;;;;;;;;;;;;;;;5051714;28;1363;-75
2022/08/20 06:33:39;;;;;;;;;;;;;;;;;;5051680;28;1214;-76
2022/08/20 06:36:07;;;;;;;;;;;;;;;;;;5069604;28;1918;-77
2022/08/20 06:38:33;;;;;;;;;;;;;;;;;;5074827;28;1514;-77
2022/08/20 06:40:59;;;;;;;;;;;;;;;;;;5079052;28;1183;-77
2022/08/20 06:43:25;;;;;;;;;;;;;;;;;;5078204;28;1195;-76
2022/08/20 06:45:56;;;;;;;;;;;;;;;;;;5086510;28;1409;-76
2022/08/20 06:48:23;;;;;;;;;;;;;;;;;;5085816;28;1373;-77
2022/08/20 06:50:49;;;;;;;;;;;;;;;;;;5070403;28;1154;-76
2022/08/20 06:53:17;;;;;;;;;;;;;;;;;;5071058;28;1103;-75
2022/08/20 06:55:44;;;;;;;;;;;;;;;;;;5070541;28;1976;-75
2022/08/20 06:58:11;;;;;;;;;;;;;;;;;;5085508;28;1432;-75
2022/08/20 07:00:39;;;;;;;;;;;;;;;;;;5092582;28;1514;-75
2022/08/20 07:03:05;;;;;;;;;;;;;;;;;;5082774;28;1262;-75
2022/08/20 07:05:32;;;;;;;;;;;;;;;;;;5091354;28;1067;-75
2022/08/20 07:07:59;;;;;;;;;;;;;;;;;;5091134;28;1048;-75
2022/08/20 07:10:27;;;;;;;;;;;;;;;;;;5085565;28;1367;-75
2022/08/20 07:12:54;;;;;;;;;;;;;;;;;;5077743;28;1268;-76
2022/08/20 07:15:20;;;;;;;;;;;;;;;;;;5082190;28;1914;-75
2022/08/20 07:17:48;;;;;;;;;;;;;;;;;;5106540;28;1111;-75
2022/08/20 07:20:14;;;;;;;;;;;;;;;;;;5090877;28;1273;-75
2022/08/20 07:22:42;;;;;;;;;;;;;;;;;;5090574;28;1702;-75
2022/08/20 07:25:09;;;;;;;;;;;;;;;;;;5091516;28;1007;-76
2022/08/20 07:27:37;;;;;;;;;;;;;;;;;;5091230;28;1051;-76
2022/08/20 07:32:47;;;;;;;;;;;;;;;;;;5090900;28;977;-75
2022/08/20 07:35:16;;;;;;;;;;;;;;;;;;5090970;28;1914;-75
2022/08/20 07:37:43;;;;;;;;;;;;;;;;;;5091377;28;1071;-76
2022/08/20 07:40:11;;;;;;;;;;;;;;;;;;5091057;28;1388;-77
2022/08/20 07:42:39;;;;;;;;;;;;;;;;;;5090858;28;873;-76
2022/08/20 07:45:06;;;;;;;;;;;;;;;;;;5091372;28;874;-73
2022/08/20 07:47:34;;;;;;;;;;;;;;;;;;5072825;28;1236;-75
2022/08/20 07:50:01;;;;;;;;;;;;;;;;;;5091321;28;1316;-76
2022/08/20 07:52:27;;;;;;;;;;;;;;;;;;5090135;28;1373;-76
2022/08/20 07:54:53;;;;;;;;;;;;;;;;;;5091316;28;1067;-76
2022/08/20 07:57:19;;;;;;;;;;;;;;;;;;5088233;28;1917;-76
2022/08/20 07:59:47;;;;;;;;;;;;;;;;;;5079494;28;1413;-76
2022/08/20 08:02:13;;;;;;;;;;;;;;;;;;5080840;28;1266;-77
2022/08/20 08:04:39;;;;;;;;;;;;;;;;;;5063203;28;1498;-76
2022/08/20 08:07:06;;;;;;;;;;;;;;;;;;5082512;28;1392;-76
2022/08/20 08:09:32;;;;;;;;;;;;;;;;;;5061171;28;1724;-76
2022/08/20 08:11:59;;;;;;;;;;;;;;;;;;5074298;28;1103;-74
2022/08/20 08:14:27;;;;;;;;;;;;;;;;;;5056901;28;1718;-75
2022/08/20 08:16:57;;;;;;;;;;;;;;;;;;5089354;28;1918;-75
2022/08/20 08:19:23;;;;;;;;;;;;;;;;;;5058873;28;1447;-75
2022/08/20 08:21:49;;;;;;;;;;;;;;;;;;5091731;28;1490;-76
2022/08/20 08:24:16;;;;;;;;;;;;;;;;;;5089734;28;1394;-75
2022/08/20 08:26:43;;;;;;;;;;;;;;;;;;5087276;28;2168;-78
2022/08/20 08:29:09;;;;;;;;;;;;;;;;;;5071768;28;2139;-78
2022/08/20 08:31:35;;;;;;;;;;;;;;;;;;5092150;28;1221;-76
2022/08/20 08:34:03;;;;;;;;;;;;;;;;;;5089792;22;3543;-74
2022/08/20 08:36:29;;;;;;;;;;;;;;;;;;5036090;28;1974;-74
2022/08/20 08:38:55;;;;;;;;;;;;;;;;;;5054130;28;1068;-74
2022/08/20 08:41:23;;;;;;;;;;;;;;;;;;5053682;28;1071;-73
2022/08/20 08:43:51;;;;;;;;;;;;;;;;;;5053874;28;1439;-74
2022/08/20 08:46:21;;;;;;;;;;;;;;;;;;5054350;28;933;-73
2022/08/20 08:48:47;;;;;;;;;;;;;;;;;;5039020;28;1339;-74
2022/08/20 08:51:16;;;;;;;;;;;;;;;;;;5033909;28;893;-74
2022/08/20 08:53:45;;;;;;;;;;;;;;;;;;5015983;28;1329;-74
2022/08/20 08:56:13;;;;;;;;;;;;;;;;;;5033978;28;1964;-74
2022/08/20 08:58:39;;;;;;;;;;;;;;;;;;5033770;28;1131;-74
2022/08/20 09:01:08;;;;;;;;;;;;;;;;;;5033744;28;1064;-74
2022/08/20 09:03:36;;;;;;;;;;;;;;;;;;5015871;28;1420;-74
2022/08/20 09:06:03;;;;;;;;;;;;;;;;;;5033771;28;913;-74
2022/08/20 09:08:31;;;;;;;;;;;;;;;;;;5033740;28;1171;-74
2022/08/20 09:11:00;;;;;;;;;;;;;;;;;;5033759;28;929;-74
2022/08/20 09:13:26;;;;;;;;;;;;;;;;;;5033199;28;1304;-72
2022/08/20 09:15:53;;;;;;;;;;;;;;;;;;5016037;28;1981;-73
2022/08/20 09:18:19;;;;;;;;;;;;;;;;;;5032729;28;1107;-74
2022/08/20 09:20:45;;;;;;;;;;;;;;;;;;5033521;28;890;-73
2022/08/20 09:23:11;;;;;;;;;;;;;;;;;;5015631;28;1138;-74
2022/08/20 09:25:39;;;;;;;;;;;;;;;;;;5033458;28;1726;-74
2022/08/20 09:28:05;;;;;;;;;;;;;;;;;;5015668;28;1104;-74
2022/08/20 09:30:31;;;;;;;;;;;;;;;;;;5033290;28;861;-75
2022/08/20 09:32:58;;;;;;;;;;;;;;;;;;5033033;28;1110;-74
2022/08/20 09:35:24;;;;;;;;;;;;;;;;;;5033261;28;1268;-74
2022/08/20 09:37:51;;;;;;;;;;;;;;;;;;5033054;28;1984;-74
2022/08/20 09:40:17;;;;;;;;;;;;;;;;;;5033029;28;1107;-74
2022/08/20 09:42:45;;;;;;;;;;;;;;;;;;5032579;28;843;-74
2022/08/20 09:45:11;;;;;;;;;;;;;;;;;;5033073;28;1283;-73
2022/08/20 09:47:37;;;;;;;;;;;;;;;;;;5032901;28;1080;-74
2022/08/20 09:50:04;;;;;;;;;;;;;;;;;;5015134;28;1117;-73
2022/08/20 09:52:31;;;;;;;;;;;;;;;;;;5032549;28;811;-73
2022/08/20 09:54:58;;;;;;;;;;;;;;;;;;5032539;28;1281;-73
2022/08/20 09:57:24;;;;;;;;;;;;;;;;;;5032787;28;1914;-74
2022/08/20 09:59:53;;;;;;;;;;;;;;;;;;5032856;28;1076;-74
2022/08/20 10:02:19;;;;;;;;;;;;;;;;;;5014526;28;1243;-73
2022/08/20 10:04:45;;;;;;;;;;;;;;;;;;5014958;28;1404;-73
2022/08/20 10:07:11;;;;;;;;;;;;;;;;;;5032539;28;934;-73
2022/08/20 10:09:38;;;;;;;;;;;;;;;;;;5032282;28;1080;-73
2022/08/20 10:12:04;;;;;;;;;;;;;;;;;;5032225;28;1111;-74
2022/08/20 10:14:30;;;;;;;;;;;;;;;;;;5032026;28;1343;-73
2022/08/20 10:16:58;;;;;;;;;;;;;;;;;;5032259;28;1910;-73
2022/08/20 10:19:25;;;;;;;;;;;;;;;;;;5032101;28;1125;-73
2022/08/20 10:21:52;;;;;;;;;;;;;;;;;;5031816;28;1044;-73
2022/08/20 10:24:18;;;;;;;;;;;;;;;;;;5032150;28;1293;-73
2022/08/20 10:26:44;;;;;;;;;;;;;;;;;;5028325;28;1261;-74
2022/08/20 10:29:10;;;;;;;;;;;;;;;;;;5014354;28;1184;-73
2022/08/20 10:31:36;;;;;;;;;;;;;;;;;;5031645;28;1037;-74
2022/08/20 10:34:04;;;;;;;;;;;;;;;;;;5031884;28;1329;-74
2022/08/20 10:36:30;;;;;;;;;;;;;;;;;;5031763;28;1943;-73
2022/08/20 10:38:56;;;;;;;;;;;;;;;;;;5031749;28;1084;-73
2022/08/20 10:41:22;;;;;;;;;;;;;;;;;;5013748;28;1206;-74
2022/08/20 10:43:49;;;;;;;;;;;;;;;;;;5031647;28;1318;-72
2022/08/20 10:46:15;;;;;;;;;;;;;;;;;;5031718;28;1076;-73
2022/08/20 10:48:41;;;;;;;;;;;;;;;;;;5013853;28;1156;-73
2022/08/20 10:51:09;;;;;;;;;;;;;;;;;;5013975;28;1151;-72
2022/08/20 10:53:35;;;;;;;;;;;;;;;;;;5031441;28;1322;-74
2022/08/20 10:56:02;;;;;;;;;;;;;;;;;;5013933;28;1964;-73
2022/08/20 10:58:30;;;;;;;;;;;;;;;;;;5031705;28;1125;-74
2022/08/20 11:00:56;;;;;;;;;;;;;;;;;;5031674;28;866;-72
2022/08/20 11:03:22;;;;;;;;;;;;;;;;;;5031341;28;1330;-73
2022/08/20 11:05:48;;;;;;;;;;;;;;;;;;5031386;28;950;-73
2022/08/20 11:08:16;;;;;;;;;;;;;;;;;;5013733;28;1582;-73
2022/08/20 11:10:42;;;;;;;;;;;;;;;;;;5031569;28;873;-73
2022/08/20 11:13:10;;;;;;;;;;;;;;;;;;5013447;28;1354;-73
2022/08/20 11:15:37;;;;;;;;;;;;;;;;;;5031301;28;1415;-73
2022/08/20 11:18:04;;;;;;;;;;;;;;;;;;5031370;28;1914;-73
2022/08/20 11:20:30;;;;;;;;;;;;;;;;;;5031185;28;835;-74
2022/08/20 11:22:57;;;;;;;;;;;;;;;;;;5031030;28;726;-73
2022/08/20 11:25:24;;;;;;;;;;;;;;;;;;5031102;28;1421;-73
2022/08/20 11:27:51;;;;;;;;;;;;;;;;;;5030918;28;921;-73
2022/08/20 11:30:18;;;;;;;;;;;;;;;;;;5031310;28;1068;-73
2022/08/20 11:32:44;;;;;;;;;;;;;;;;;;5030569;28;890;-73
2022/08/20 11:35:10;;;;;;;;;;;;;;;;;;5013114;28;1392;-73
2022/08/20 11:37:37;;;;;;;;;;;;;;;;;;5013163;28;1907;-73
2022/08/20 11:40:04;;;;;;;;;;;;;;;;;;5031439;28;734;-74
2022/08/20 11:42:31;;;;;;;;;;;;;;;;;;5034353;28;969;-73
2022/08/20 11:44:57;;;;;;;;;;;;;;;;;;5034996;28;1372;-73
2022/08/20 11:47:25;;;;;;;;;;;;;;;;;;5035085;28;1080;-74
2022/08/20 11:49:56;;;;;;;;;;;;;;;;;;5034833;28;1096;-73
2022/08/20 11:52:22;;;;;;;;;;;;;;;;;;5017104;28;1470;-73
2022/08/20 11:54:48;;;;;;;;;;;;;;;;;;5034699;28;1399;-73
2022/08/20 11:57:18;;;;;;;;;;;;;;;;;;5016856;28;1919;-74
2022/08/20 11:59:49;;;;;;;;;;;;;;;;;;5034771;28;1064;-73
2022/08/20 12:02:15;;;;;;;;;;;;;;;;;;5034442;28;775;-72
2022/08/20 12:04:41;;;;;;;;;;;;;;;;;;5016931;28;1330;-72
2022/08/20 12:07:08;;;;;;;;;;;;;;;;;;5034732;28;1071;-73
2022/08/20 12:09:35;;;;;;;;;;;;;;;;;;5034482;28;1123;-72
2022/08/20 12:12:01;;;;;;;;;;;;;;;;;;5034242;28;1080;-73
2022/08/20 12:14:27;;;;;;;;;;;;;;;;;;5034537;28;1298;-73
2022/08/20 12:16:55;;;;;;;;;;;;;;;;;;5034351;28;1914;-73
2022/08/20 12:19:21;;;;;;;;;;;;;;;;;;5033711;28;1547;-73
2022/08/20 12:21:47;;;;;;;;;;;;;;;;;;5025365;28;1239;-73
2022/08/20 12:24:13;;;;;;;;;;;;;;;;;;5013054;28;1667;-73
2022/08/20 12:26:39;;;;;;;;;;;;;;;;;;5023769;28;1260;-73
2022/08/20 12:29:05;;;;;;;;;;;;;;;;;;5038193;28;1376;-73
2022/08/20 12:31:32;;;;;;;;;;;;;;;;;;5039600;28;1142;-73
2022/08/20 12:34:00;;;;;;;;;;;;;;;;;;5034303;28;1402;-72
2022/08/20 12:36:26;;;;;;;;;;;;;;;;;;5033795;28;1489;-73
2022/08/20 12:38:52;;;;;;;;;;;;;;;;;;5024021;28;1985;-73
2022/08/20 12:41:18;;;;;;;;;;;;;;;;;;5043864;28;1221;-72
2022/08/20 12:43:44;;;;;;;;;;;;;;;;;;5038038;28;1536;-73
2022/08/20 12:46:11;;;;;;;;;;;;;;;;;;5034278;28;1407;-73
2022/08/20 12:48:37;;;;;;;;;;;;;;;;;;5022368;28;1470;-73
2022/08/20 12:51:04;;;;;;;;;;;;;;;;;;5031719;28;1126;-73
2022/08/20 12:53:30;;;;;;;;;;;;;;;;;;5046361;28;1535;-73
2022/08/20 12:55:57;;;;;;;;;;;;;;;;;;5037456;28;1162;-73
2022/08/20 12:58:23;;;;;;;;;;;;;;;;;;5051856;28;1971;-73
2022/08/20 13:00:49;;;;;;;;;;;;;;;;;;5033873;28;1294;-73
2022/08/20 13:03:15;;;;;;;;;;;;;;;;;;5029862;28;1891;-73
2022/08/20 13:05:42;;;;;;;;;;;;;;;;;;5024119;28;1285;-73
2022/08/20 13:08:10;;;;;;;;;;;;;;;;;;5022246;28;1282;-73
2022/08/20 13:10:41;;;;;;;;;;;;;;;;;;5021960;28;1200;-73
2022/08/20 13:13:07;;;;;;;;;;;;;;;;;;5007319;28;1604;-73
2022/08/20 13:15:33;;;;;;;;;;;;;;;;;;5042092;28;1396;-74
2022/08/20 13:18:00;;;;;;;;;;;;;;;;;;5052997;28;1914;-74
2022/08/20 13:20:26;;;;;;;;;;;;;;;;;;5053687;28;1134;-74
2022/08/20 13:22:52;;;;;;;;;;;;;;;;;;5019463;28;1388;-74
2022/08/20 13:25:20;;;;;;;;;;;;;;;;;;5027109;28;1294;-74
2022/08/20 13:27:47;;;;;;;;;;;;;;;;;;5053330;28;1068;-74
2022/08/20 13:30:14;;;;;;;;;;;;;;;;;;5053256;28;1071;-73
2022/08/20 13:32:40;;;;;;;;;;;;;;;;;;5044966;28;1338;-74
2022/08/20 13:35:07;;;;;;;;;;;;;;;;;;5044708;28;1384;-74
2022/08/20 13:37:33;;;;;;;;;;;;;;;;;;5053053;28;1922;-73
2022/08/20 13:40:00;;;;;;;;;;;;;;;;;;5045751;28;1389;-74
2022/08/20 13:42:27;;;;;;;;;;;;;;;;;;5040934;28;1055;-73
2022/08/20 13:44:54;;;;;;;;;;;;;;;;;;5031839;28;1464;-73
2022/08/20 13:47:20;;;;;;;;;;;;;;;;;;5040787;28;1608;-74
2022/08/20 13:49:47;;;;;;;;;;;;;;;;;;5033088;28;1174;-74
2022/08/20 13:52:13;;;;;;;;;;;;;;;;;;5031832;28;1513;-74
2022/08/20 13:54:39;;;;;;;;;;;;;;;;;;5038959;28;1468;-74
2022/08/20 13:57:06;;;;;;;;;;;;;;;;;;5045274;28;1916;-74
2022/08/20 13:59:36;;;;;;;;;;;;;;;;;;5032852;28;988;-74
2022/08/20 14:02:02;;;;;;;;;;;;;;;;;;5028679;28;1468;-73
2022/08/20 14:04:28;;;;;;;;;;;;;;;;;;5043965;28;1491;-74
2022/08/20 14:06:54;;;;;;;;;;;;;;;;;;5044500;28;1421;-74
2022/08/20 14:09:21;;;;;;;;;;;;;;;;;;5033648;28;1495;-73
2022/08/20 14:11:47;;;;;;;;;;;;;;;;;;5037630;28;1441;-73
2022/08/20 14:14:13;;;;;;;;;;;;;;;;;;5033738;28;1758;-74
2022/08/20 14:16:40;;;;;;;;;;;;;;;;;;5040800;28;1322;-74
2022/08/20 14:19:07;;;;;;;;;;;;;;;;;;5030575;28;1981;-73
2022/08/20 14:21:33;;;;;;;;;;;;;;;;;;5030442;28;1325;-73
2022/08/20 14:24:00;;;;;;;;;;;;;;;;;;5025810;28;1476;-72
2022/08/20 14:26:26;;;;;;;;;;;;;;;;;;5009588;28;1428;-72
2022/08/20 14:28:53;;;;;;;;;;;;;;;;;;5034912;28;1357;-73
2022/08/20 14:31:19;;;;;;;;;;;;;;;;;;5008134;28;1421;-71
2022/08/20 14:33:46;;;;;;;;;;;;;;;;;;5005572;28;1461;-72
2022/08/20 14:36:12;;;;;;;;;;;;;;;;;;5082433;22;4211;-75
2022/08/20 14:38:43;;;;;;;;;;;;;;;;;;5082444;28;1913;-76
2022/08/20 14:41:10;;;;;;;;;;;;;;;;;;5081163;28;1224;-75
2022/08/20 14:43:36;;;;;;;;;;;;;;;;;;5063813;28;1239;-75
2022/08/20 14:46:02;;;;;;;;;;;;;;;;;;5067164;28;1477;-75
2022/08/20 14:48:28;;;;;;;;;;;;;;;;;;5057621;28;1410;-73
2022/08/20 14:50:58;;;;;;;;;;;;;;;;;;5039978;28;1283;-76
2022/08/20 14:53:24;;;;;;;;;;;;;;;;;;5059278;28;1259;-75
2022/08/20 14:55:50;;;;;;;;;;;;;;;;;;5058266;28;1481;-74
2022/08/20 14:58:16;;;;;;;;;;;;;;;;;;5036834;28;1914;-75
2022/08/20 15:00:43;;;;;;;;;;;;;;;;;;5057182;28;1514;-75
2022/08/20 15:03:09;;;;;;;;;;;;;;;;;;5047355;28;1520;-75
2022/08/20 15:05:36;;;;;;;;;;;;;;;;;;5057915;28;1445;-77
2022/08/20 15:08:03;;;;;;;;;;;;;;;;;;5060200;28;1408;-75
2022/08/20 15:10:31;;;;;;;;;;;;;;;;;;5056029;28;1185;-74
2022/08/20 15:12:57;;;;;;;;;;;;;;;;;;5039651;28;1499;-75
2022/08/20 15:15:24;;;;;;;;;;;;;;;;;;5060688;28;1435;-75
2022/08/20 15:17:51;;;;;;;;;;;;;;;;;;5058954;28;1919;-75
2022/08/20 15:20:18;;;;;;;;;;;;;;;;;;5052098;28;1266;-76
2022/08/20 15:22:44;;;;;;;;;;;;;;;;;;5050796;28;1258;-75
2022/08/20 15:25:12;;;;;;;;;;;;;;;;;;5069084;28;1428;-73
2022/08/20 15:27:39;;;;;;;;;;;;;;;;;;5068995;28;1060;-75
2022/08/20 15:30:06;;;;;;;;;;;;;;;;;;5068086;28;1446;-74
2022/08/20 15:32:32;;;;;;;;;;;;;;;;;;5054825;28;1077;-75
2022/08/20 15:34:58;;;;;;;;;;;;;;;;;;5054840;28;1400;-76
2022/08/20 15:37:25;;;;;;;;;;;;;;;;;;5069296;28;834;-75
2022/08/20 15:39:51;;;;;;;;;;;;;;;;;;5068054;28;1977;-75
2022/08/20 15:42:19;;;;;;;;;;;;;;;;;;5058960;28;1657;-74
2022/08/20 15:44:46;;;;;;;;;;;;;;;;;;5038673;28;1561;-75
2022/08/20 15:47:23;;;;;;;;;;;;;;;;;;5049441;28;771;-79
2022/08/20 15:49:49;;;;;;;;;;;;;;;;;;5031327;28;1379;-75
2022/08/20 15:52:16;;;;;;;;;;;;;;;;;;5060263;28;1483;-74
2022/08/20 15:54:42;;;;;;;;;;;;;;;;;;5066112;28;1466;-74
2022/08/20 15:57:10;;;;;;;;;;;;;;;;;;5057614;28;1402;-72
2022/08/20 15:59:41;;;;;;;;;;;;;;;;;;5041988;28;1910;-74
2022/08/20 16:02:12;;;;;;;;;;;;;;;;;;5056664;28;1174;-74
2022/08/20 16:04:44;;;;;;;;;;;;;;;;;;5033279;28;1504;-74
2022/08/20 16:07:13;;;;;;;;;;;;;;;;;;5057072;28;1120;-75
2022/08/20 16:09:43;;;;;;;;;;;;;;;;;;5038950;28;1493;-74
2022/08/20 16:12:11;;;;;;;;;;;;;;;;;;5056648;28;1201;-74
2022/08/20 16:14:38;;;;;;;;;;;;;;;;;;5030743;28;1393;-75
2022/08/20 16:17:06;;;;;;;;;;;;;;;;;;5037471;28;1472;-74
2022/08/20 16:19:35;;;;;;;;;;;;;;;;;;5057151;28;1914;-76
2022/08/20 16:22:01;;;;;;;;;;;;;;;;;;5057040;28;1408;-75
2022/08/20 16:24:27;;;;;;;;;;;;;;;;;;5057921;28;1415;-75
2022/08/20 16:26:58;;;;;;;;;;;;;;;;;;5067649;28;1538;-75
2022/08/20 16:29:25;;;;;;;;;;;;;;;;;;5042636;28;1291;-74
2022/08/20 16:31:54;;;;;;;;;;;;;;;;;;5037318;28;1216;-75
2022/08/20 16:34:24;;;;;;;;;;;;;;;;;;5060538;28;1466;-74
2022/08/20 16:36:53;;;;;;;;;;;;;;;;;;5062436;28;1429;-75
2022/08/20 16:39:21;;;;;;;;;;;;;;;;;;5062873;28;1985;-74
2022/08/20 16:41:48;;;;;;;;;;;;;;;;;;5064013;28;1187;-75
2022/08/20 16:44:16;;;;;;;;;;;;;;;;;;5045365;28;1243;-74
2022/08/20 16:46:44;;;;;;;;;;;;;;;;;;5051900;28;1075;-75
2022/08/20 16:49:12;;;;;;;;;;;;;;;;;;5051733;28;1042;-76
2022/08/20 16:51:40;;;;;;;;;;;;;;;;;;5033658;28;1328;-74
2022/08/20 16:54:06;;;;;;;;;;;;;;;;;;5054068;28;1240;-74
2022/08/20 16:56:33;;;;;;;;;;;;;;;;;;5059915;28;1308;-74
2022/08/20 16:59:01;;;;;;;;;;;;;;;;;;5036343;28;1914;-75
2022/08/20 17:01:27;;;;;;;;;;;;;;;;;;5051347;28;930;-76
2022/08/20 17:03:53;;;;;;;;;;;;;;;;;;5037859;28;1450;-76
2022/08/20 17:06:24;;;;;;;;;;;;;;;;;;5060666;28;1497;-76
2022/08/20 17:08:52;;;;;;;;;;;;;;;;;;5060179;28;1204;-74
2022/08/20 17:11:23;;;;;;;;;;;;;;;;;;5062681;28;1191;-75